sensor_id;sensor_type;location;lat;lon;timestamp;temperature;humidity
2162;DHT22;1087;50.226;8.682;2023-03-23T00:01:54;14.10;99.90
2162;DHT22;1087;50.226;8.682;2023-03-23T00:04:20;14.10;99.90
2162;DHT22;1087;50.226;8.682;2023-03-23T00:06:46;14.10;99.90
2162;DHT22;1087;50.226;8.682;2023-03-23T00:09:13;14.10;99.90
2162;DHT22;1087;50.226;8.682;2023-03-23T00:11:41;14.10;99.90
2162;DHT22;1087;50.226;8.682;2023-03-23T00:14:08;14.00;99.90
2162;DHT22;1087;50.226;8.682;2023-03-23T00:16:39;14.00;99.90
2162;DHT22;1087;50.226;8.682;2023-03-23T00:19:09;14.00;99.90
2162;DHT22;1087;50.226;8.682;2023-03-23T00:21:37;14.00;99.90
2162;DHT22;1087;50.226;8.682;2023-03-23T00:24:05;14.00;99.90
2162;DHT22;1087;50.226;8.682;2023-03-23T00:26:32;14.00;99.90
2162;DHT22;1087;50.226;8.682;2023-03-23T00:29:03;14.00;99.90
2162;DHT22;1087;50.226;8.682;2023-03-23T00:31:29;14.10;99.90
2162;DHT22;1087;50.226;8.682;2023-03-23T00:34:01;14.10;99.90
2162;DHT22;1087;50.226;8.682;2023-03-23T00:36:30;14.20;99.90
2162;DHT22;1087;50.226;8.682;2023-03-23T00:38:55;14.10;99.90
2162;DHT22;1087;50.226;8.682;2023-03-23T00:41:25;14.20;99.90
2162;DHT22;1087;50.226;8.682;2023-03-23T00:43:57;14.20;99.90
2162;DHT22;1087;50.226;8.682;2023-03-23T00:46:26;14.20;99.90
2162;DHT22;1087;50.226;8.682;2023-03-23T00:48:53;14.10;99.90
2162;DHT22;1087;50.226;8.682;2023-03-23T00:51:19;14.00;99.90
2162;DHT22;1087;50.226;8.682;2023-03-23T00:53:45;14.10;99.90
2162;DHT22;1087;50.226;8.682;2023-03-23T00:56:11;14.10;99.90
2162;DHT22;1087;50.226;8.682;2023-03-23T00:58:37;14.10;99.90
2162;DHT22;1087;50.226;8.682;2023-03-23T01:01:03;14.10;99.90
2162;DHT22;1087;50.226;8.682;2023-03-23T01:03:28;14.20;99.90
2162;DHT22;1087;50.226;8.682;2023-03-23T01:05:55;14.20;99.90
2162;DHT22;1087;50.226;8.682;2023-03-23T01:08:21;14.10;99.90
2162;DHT22;1087;50.226;8.682;2023-03-23T01:10:48;14.10;99.90
2162;DHT22;1087;50.226;8.682;2023-03-23T01:13:14;14.10;99.90
2162;DHT22;1087;50.226;8.682;2023-03-23T01:15:41;14.10;99.90
2162;DHT22;1087;50.226;8.682;2023-03-23T01:18:08;14.10;99.90
2162;DHT22;1087;50.226;8.682;2023-03-23T01:20:35;14.10;99.90
2162;DHT22;1087;50.226;8.682;2023-03-23T01:23:00;14.10;99.90
2162;DHT22;1087;50.226;8.682;2023-03-23T01:25:28;14.10;99.90
2162;DHT22;1087;50.226;8.682;2023-03-23T01:27:54;14.20;99.90
2162;DHT22;1087;50.226;8.682;2023-03-23T01:30:19;14.20;99.90
2162;DHT22;1087;50.226;8.682;2023-03-23T01:32:45;14.20;99.90
2162;DHT22;1087;50.226;8.682;2023-03-23T01:35:13;14.20;99.90
2162;DHT22;1087;50.226;8.682;2023-03-23T01:37:39;14.20;99.90
2162;DHT22;1087;50.226;8.682;2023-03-23T01:40:05;14.10;99.90
2162;DHT22;1087;50.226;8.682;2023-03-23T01:42:33;14.00;99.90
2162;DHT22;1087;50.226;8.682;2023-03-23T01:45:23;14.00;99.90
2162;DHT22;1087;50.226;8.682;2023-03-23T01:47:56;14.00;99.90
2162;DHT22;1087;50.226;8.682;2023-03-23T01:50:23;14.00;99.90
2162;DHT22;1087;50.226;8.682;2023-03-23T01:52:52;14.00;99.90
2162;DHT22;1087;50.226;8.682;2023-03-23T01:55:20;14.00;99.90
2162;DHT22;1087;50.226;8.682;2023-03-23T01:57:47;14.10;99.90
2162;DHT22;1087;50.226;8.682;2023-03-23T02:00:13;14.10;99.90
2162;DHT22;1087;50.226;8.682;2023-03-23T02:02:43;14.10;99.90
2162;DHT22;1087;50.226;8.682;2023-03-23T02:05:28;14.10;99.90
2162;DHT22;1087;50.226;8.682;2023-03-23T02:07:57;14.10;99.90
2162;DHT22;1087;50.226;8.682;2023-03-23T02:10:25;14.10;99.90
2162;DHT22;1087;50.226;8.682;2023-03-23T02:12:50;14.00;99.90
2162;DHT22;1087;50.226;8.682;2023-03-23T02:15:16;14.10;99.90
2162;DHT22;1087;50.226;8.682;2023-03-23T02:17:46;14.10;99.90
2162;DHT22;1087;50.226;8.682;2023-03-23T02:20:55;14.00;99.90
2162;DHT22;1087;50.226;8.682;2023-03-23T02:29:18;13.90;99.90
2162;DHT22;1087;50.226;8.682;2023-03-23T02:32:04;13.90;99.90
2162;DHT22;1087;50.226;8.682;2023-03-23T02:35:05;14.00;99.90
2162;DHT22;1087;50.226;8.682;2023-03-23T02:37:38;13.90;99.90
2162;DHT22;1087;50.226;8.682;2023-03-23T02:40:06;13.80;99.90
2162;DHT22;1087;50.226;8.682;2023-03-23T02:42:37;13.80;99.90
2162;DHT22;1087;50.226;8.682;2023-03-23T02:45:07;13.80;99.90
2162;DHT22;1087;50.226;8.682;2023-03-23T02:47:33;13.80;99.90
2162;DHT22;1087;50.226;8.682;2023-03-23T02:50:02;13.80;99.90
2162;DHT22;1087;50.226;8.682;2023-03-23T02:52:30;13.70;99.90
2162;DHT22;1087;50.226;8.682;2023-03-23T02:54:57;13.70;99.90
2162;DHT22;1087;50.226;8.682;2023-03-23T02:57:25;13.60;99.90
2162;DHT22;1087;50.226;8.682;2023-03-23T02:59:51;13.70;99.90
2162;DHT22;1087;50.226;8.682;2023-03-23T03:02:19;13.70;99.90
2162;DHT22;1087;50.226;8.682;2023-03-23T03:05:00;13.70;99.90
2162;DHT22;1087;50.226;8.682;2023-03-23T03:07:39;13.70;99.90
2162;DHT22;1087;50.226;8.682;2023-03-23T03:10:26;13.70;99.90
2162;DHT22;1087;50.226;8.682;2023-03-23T03:18:28;13.70;99.90
2162;DHT22;1087;50.226;8.682;2023-03-23T03:21:03;13.70;99.90
2162;DHT22;1087;50.226;8.682;2023-03-23T03:23:32;13.80;99.90
2162;DHT22;1087;50.226;8.682;2023-03-23T03:25:59;13.80;99.90
2162;DHT22;1087;50.226;8.682;2023-03-23T03:28:26;13.90;99.90
2162;DHT22;1087;50.226;8.682;2023-03-23T03:30:56;13.90;99.90
2162;DHT22;1087;50.226;8.682;2023-03-23T03:33:26;14.00;99.90
2162;DHT22;1087;50.226;8.682;2023-03-23T03:35:57;14.00;99.90
2162;DHT22;1087;50.226;8.682;2023-03-23T03:38:25;13.90;99.90
2162;DHT22;1087;50.226;8.682;2023-03-23T03:40:51;13.80;99.90
2162;DHT22;1087;50.226;8.682;2023-03-23T03:43:17;13.80;99.90
2162;DHT22;1087;50.226;8.682;2023-03-23T03:45:43;13.80;99.90
2162;DHT22;1087;50.226;8.682;2023-03-23T03:48:09;13.70;99.90
2162;DHT22;1087;50.226;8.682;2023-03-23T03:50:35;13.80;99.90
2162;DHT22;1087;50.226;8.682;2023-03-23T03:53:01;13.80;99.90
2162;DHT22;1087;50.226;8.682;2023-03-23T03:55:26;13.80;99.90
2162;DHT22;1087;50.226;8.682;2023-03-23T03:57:54;13.80;99.90
2162;DHT22;1087;50.226;8.682;2023-03-23T04:00:20;13.80;99.90
2162;DHT22;1087;50.226;8.682;2023-03-23T04:02:48;13.80;99.90
2162;DHT22;1087;50.226;8.682;2023-03-23T04:05:16;13.80;99.90
2162;DHT22;1087;50.226;8.682;2023-03-23T04:07:42;13.70;99.90
2162;DHT22;1087;50.226;8.682;2023-03-23T04:10:09;13.70;99.90
2162;DHT22;1087;50.226;8.682;2023-03-23T04:12:35;13.70;99.90
2162;DHT22;1087;50.226;8.682;2023-03-23T04:15:01;13.60;99.90
2162;DHT22;1087;50.226;8.682;2023-03-23T04:17:27;13.60;99.90
2162;DHT22;1087;50.226;8.682;2023-03-23T04:19:54;13.60;99.90
2162;DHT22;1087;50.226;8.682;2023-03-23T04:22:26;13.60;99.90
2162;DHT22;1087;50.226;8.682;2023-03-23T04:24:56;13.50;99.90
2162;DHT22;1087;50.226;8.682;2023-03-23T04:27:24;13.50;99.90
2162;DHT22;1087;50.226;8.682;2023-03-23T04:29:50;13.60;99.90
2162;DHT22;1087;50.226;8.682;2023-03-23T04:32:15;13.70;99.90
2162;DHT22;1087;50.226;8.682;2023-03-23T04:34:43;13.70;99.90
2162;DHT22;1087;50.226;8.682;2023-03-23T04:37:09;13.70;99.90
2162;DHT22;1087;50.226;8.682;2023-03-23T04:39:35;13.70;99.90
2162;DHT22;1087;50.226;8.682;2023-03-23T04:42:00;13.80;99.90
2162;DHT22;1087;50.226;8.682;2023-03-23T04:44:27;13.70;99.90
2162;DHT22;1087;50.226;8.682;2023-03-23T04:46:53;13.70;99.90
2162;DHT22;1087;50.226;8.682;2023-03-23T04:49:19;13.70;99.90
2162;DHT22;1087;50.226;8.682;2023-03-23T04:51:48;13.60;99.90
2162;DHT22;1087;50.226;8.682;2023-03-23T04:54:16;13.70;99.90
2162;DHT22;1087;50.226;8.682;2023-03-23T04:56:41;13.70;99.90
2162;DHT22;1087;50.226;8.682;2023-03-23T04:59:07;13.80;99.90
2162;DHT22;1087;50.226;8.682;2023-03-23T05:01:33;13.80;99.90
2162;DHT22;1087;50.226;8.682;2023-03-23T05:04:03;13.70;99.90
2162;DHT22;1087;50.226;8.682;2023-03-23T05:06:28;13.70;99.90
2162;DHT22;1087;50.226;8.682;2023-03-23T05:08:54;13.70;99.90
2162;DHT22;1087;50.226;8.682;2023-03-23T05:11:20;13.70;99.90
2162;DHT22;1087;50.226;8.682;2023-03-23T05:13:45;13.60;99.90
2162;DHT22;1087;50.226;8.682;2023-03-23T05:16:11;13.50;99.90
2162;DHT22;1087;50.226;8.682;2023-03-23T05:18:36;13.50;99.90
2162;DHT22;1087;50.226;8.682;2023-03-23T05:21:03;13.50;99.90
2162;DHT22;1087;50.226;8.682;2023-03-23T05:23:29;13.50;99.90
2162;DHT22;1087;50.226;8.682;2023-03-23T05:25:57;13.50;99.90
2162;DHT22;1087;50.226;8.682;2023-03-23T05:28:28;13.40;99.90
2162;DHT22;1087;50.226;8.682;2023-03-23T05:30:56;13.30;99.90
2162;DHT22;1087;50.226;8.682;2023-03-23T05:33:22;13.30;99.90
2162;DHT22;1087;50.226;8.682;2023-03-23T05:35:48;13.30;99.90
2162;DHT22;1087;50.226;8.682;2023-03-23T05:38:14;13.30;99.90
2162;DHT22;1087;50.226;8.682;2023-03-23T05:40:40;13.40;99.90
2162;DHT22;1087;50.226;8.682;2023-03-23T05:43:07;13.30;99.90
2162;DHT22;1087;50.226;8.682;2023-03-23T05:45:33;13.30;99.90
2162;DHT22;1087;50.226;8.682;2023-03-23T05:47:59;13.30;99.90
2162;DHT22;1087;50.226;8.682;2023-03-23T05:50:25;13.30;99.90
2162;DHT22;1087;50.226;8.682;2023-03-23T05:52:50;13.30;99.90
2162;DHT22;1087;50.226;8.682;2023-03-23T05:55:16;13.30;99.90
2162;DHT22;1087;50.226;8.682;2023-03-23T05:57:42;13.30;99.90
2162;DHT22;1087;50.226;8.682;2023-03-23T06:00:08;13.20;99.90
2162;DHT22;1087;50.226;8.682;2023-03-23T06:02:48;13.20;99.90
2162;DHT22;1087;50.226;8.682;2023-03-23T06:05:16;13.20;99.90
2162;DHT22;1087;50.226;8.682;2023-03-23T06:07:43;13.10;99.90
2162;DHT22;1087;50.226;8.682;2023-03-23T06:10:09;13.20;99.90
2162;DHT22;1087;50.226;8.682;2023-03-23T06:12:36;13.20;99.90
2162;DHT22;1087;50.226;8.682;2023-03-23T06:15:02;13.10;99.90
2162;DHT22;1087;50.226;8.682;2023-03-23T06:17:30;13.20;99.90
2162;DHT22;1087;50.226;8.682;2023-03-23T06:19:56;13.20;99.90
2162;DHT22;1087;50.226;8.682;2023-03-23T06:22:21;13.30;99.90
2162;DHT22;1087;50.226;8.682;2023-03-23T06:24:47;13.20;99.90
2162;DHT22;1087;50.226;8.682;2023-03-23T06:27:12;13.10;99.90
2162;DHT22;1087;50.226;8.682;2023-03-23T06:29:39;13.20;99.90
2162;DHT22;1087;50.226;8.682;2023-03-23T06:32:05;13.00;99.90
2162;DHT22;1087;50.226;8.682;2023-03-23T06:34:31;13.00;99.90
2162;DHT22;1087;50.226;8.682;2023-03-23T06:36:58;13.20;99.90
2162;DHT22;1087;50.226;8.682;2023-03-23T06:39:24;13.20;99.90
2162;DHT22;1087;50.226;8.682;2023-03-23T06:41:50;13.20;99.90
2162;DHT22;1087;50.226;8.682;2023-03-23T06:44:16;13.20;99.90
2162;DHT22;1087;50.226;8.682;2023-03-23T06:46:42;13.20;99.90
2162;DHT22;1087;50.226;8.682;2023-03-23T06:49:08;13.20;99.90
2162;DHT22;1087;50.226;8.682;2023-03-23T06:51:34;13.10;99.90
2162;DHT22;1087;50.226;8.682;2023-03-23T06:54:00;13.10;99.90
2162;DHT22;1087;50.226;8.682;2023-03-23T06:56:26;13.10;99.90
2162;DHT22;1087;50.226;8.682;2023-03-23T06:58:51;13.10;99.90
2162;DHT22;1087;50.226;8.682;2023-03-23T07:01:17;13.10;99.90
2162;DHT22;1087;50.226;8.682;2023-03-23T07:03:43;13.10;99.90
2162;DHT22;1087;50.226;8.682;2023-03-23T07:06:09;13.20;99.90
2162;DHT22;1087;50.226;8.682;2023-03-23T07:08:35;13.10;99.90
2162;DHT22;1087;50.226;8.682;2023-03-23T07:11:02;13.10;99.90
2162;DHT22;1087;50.226;8.682;2023-03-23T07:13:28;13.10;99.90
2162;DHT22;1087;50.226;8.682;2023-03-23T07:15:53;13.20;99.90
2162;DHT22;1087;50.226;8.682;2023-03-23T07:18:21;13.20;99.90
2162;DHT22;1087;50.226;8.682;2023-03-23T07:20:48;13.20;99.90
2162;DHT22;1087;50.226;8.682;2023-03-23T07:23:14;13.20;99.90
2162;DHT22;1087;50.226;8.682;2023-03-23T07:25:40;13.20;99.90
2162;DHT22;1087;50.226;8.682;2023-03-23T07:28:06;13.30;99.90
2162;DHT22;1087;50.226;8.682;2023-03-23T07:30:31;13.30;99.90
2162;DHT22;1087;50.226;8.682;2023-03-23T07:32:57;13.30;99.90
2162;DHT22;1087;50.226;8.682;2023-03-23T07:35:24;13.30;99.90
2162;DHT22;1087;50.226;8.682;2023-03-23T07:37:50;13.30;99.90
2162;DHT22;1087;50.226;8.682;2023-03-23T07:40:17;13.30;99.90
2162;DHT22;1087;50.226;8.682;2023-03-23T07:42:45;13.20;99.90
2162;DHT22;1087;50.226;8.682;2023-03-23T07:45:12;13.20;99.90
2162;DHT22;1087;50.226;8.682;2023-03-23T07:47:39;13.20;99.90
2162;DHT22;1087;50.226;8.682;2023-03-23T07:50:05;13.10;99.90
2162;DHT22;1087;50.226;8.682;2023-03-23T07:52:32;13.20;99.90
2162;DHT22;1087;50.226;8.682;2023-03-23T07:54:58;13.20;99.90
2162;DHT22;1087;50.226;8.682;2023-03-23T07:57:24;13.20;99.90
2162;DHT22;1087;50.226;8.682;2023-03-23T07:59:50;13.30;99.90
2162;DHT22;1087;50.226;8.682;2023-03-23T08:02:16;13.20;99.90
2162;DHT22;1087;50.226;8.682;2023-03-23T08:04:41;13.20;99.90
2162;DHT22;1087;50.226;8.682;2023-03-23T08:07:07;13.20;99.90
2162;DHT22;1087;50.226;8.682;2023-03-23T08:09:33;13.20;99.90
2162;DHT22;1087;50.226;8.682;2023-03-23T08:11:59;13.20;99.90
2162;DHT22;1087;50.226;8.682;2023-03-23T08:14:24;13.30;99.90
2162;DHT22;1087;50.226;8.682;2023-03-23T08:16:53;13.20;99.90
2162;DHT22;1087;50.226;8.682;2023-03-23T08:19:22;13.30;99.90
2162;DHT22;1087;50.226;8.682;2023-03-23T08:21:47;13.30;99.90
2162;DHT22;1087;50.226;8.682;2023-03-23T08:24:13;13.30;99.90
2162;DHT22;1087;50.226;8.682;2023-03-23T08:26:39;13.30;99.90
2162;DHT22;1087;50.226;8.682;2023-03-23T08:29:05;13.30;99.90
2162;DHT22;1087;50.226;8.682;2023-03-23T08:31:31;13.40;99.90
2162;DHT22;1087;50.226;8.682;2023-03-23T08:34:00;13.30;99.90
2162;DHT22;1087;50.226;8.682;2023-03-23T08:36:26;13.30;99.90
2162;DHT22;1087;50.226;8.682;2023-03-23T08:38:53;13.30;99.90
2162;DHT22;1087;50.226;8.682;2023-03-23T08:41:19;13.30;99.90
2162;DHT22;1087;50.226;8.682;2023-03-23T08:43:45;13.30;99.90
2162;DHT22;1087;50.226;8.682;2023-03-23T08:46:12;13.30;99.90
2162;DHT22;1087;50.226;8.682;2023-03-23T08:48:37;13.30;99.90
2162;DHT22;1087;50.226;8.682;2023-03-23T08:51:05;13.20;99.90
2162;DHT22;1087;50.226;8.682;2023-03-23T08:53:31;13.30;99.90
2162;DHT22;1087;50.226;8.682;2023-03-23T08:56:03;13.30;99.90
2162;DHT22;1087;50.226;8.682;2023-03-23T08:58:29;13.30;99.90
2162;DHT22;1087;50.226;8.682;2023-03-23T09:00:54;13.30;99.90
2162;DHT22;1087;50.226;8.682;2023-03-23T09:03:20;13.40;99.90
2162;DHT22;1087;50.226;8.682;2023-03-23T09:05:45;13.40;99.90
2162;DHT22;1087;50.226;8.682;2023-03-23T09:08:11;13.40;99.90
2162;DHT22;1087;50.226;8.682;2023-03-23T09:10:40;13.40;99.90
2162;DHT22;1087;50.226;8.682;2023-03-23T09:13:20;13.40;99.90
2162;DHT22;1087;50.226;8.682;2023-03-23T09:15:46;13.40;99.90
2162;DHT22;1087;50.226;8.682;2023-03-23T09:18:12;13.40;99.90
2162;DHT22;1087;50.226;8.682;2023-03-23T09:20:38;13.40;99.90
2162;DHT22;1087;50.226;8.682;2023-03-23T09:23:04;13.50;99.90
2162;DHT22;1087;50.226;8.682;2023-03-23T09:25:30;13.60;99.90
2162;DHT22;1087;50.226;8.682;2023-03-23T09:27:58;13.50;99.90
2162;DHT22;1087;50.226;8.682;2023-03-23T09:30:26;13.60;99.90
2162;DHT22;1087;50.226;8.682;2023-03-23T09:32:53;13.60;99.90
2162;DHT22;1087;50.226;8.682;2023-03-23T09:35:19;13.60;99.90
2162;DHT22;1087;50.226;8.682;2023-03-23T09:37:47;13.60;99.90
2162;DHT22;1087;50.226;8.682;2023-03-23T09:40:20;13.60;99.90
2162;DHT22;1087;50.226;8.682;2023-03-23T09:48:38;13.80;99.90
2162;DHT22;1087;50.226;8.682;2023-03-23T09:51:23;13.80;99.90
2162;DHT22;1087;50.226;8.682;2023-03-23T09:53:54;13.90;99.90
2162;DHT22;1087;50.226;8.682;2023-03-23T09:56:21;14.00;99.90
2162;DHT22;1087;50.226;8.682;2023-03-23T10:01:45;14.10;99.90
2162;DHT22;1087;50.226;8.682;2023-03-23T10:04:15;14.10;99.90
2162;DHT22;1087;50.226;8.682;2023-03-23T10:06:43;14.20;99.90
2162;DHT22;1087;50.226;8.682;2023-03-23T10:09:15;14.20;99.90
2162;DHT22;1087;50.226;8.682;2023-03-23T10:12:05;14.20;99.90
2162;DHT22;1087;50.226;8.682;2023-03-23T10:14:43;14.20;99.90
2162;DHT22;1087;50.226;8.682;2023-03-23T10:17:15;14.20;99.90
2162;DHT22;1087;50.226;8.682;2023-03-23T10:22:45;14.30;99.90
2162;DHT22;1087;50.226;8.682;2023-03-23T10:35:56;14.20;99.90
2162;DHT22;1087;50.226;8.682;2023-03-23T10:38:36;14.10;99.90
2162;DHT22;1087;50.226;8.682;2023-03-23T10:41:15;14.10;99.90
2162;DHT22;1087;50.226;8.682;2023-03-23T10:43:42;14.10;99.90
2162;DHT22;1087;50.226;8.682;2023-03-23T10:48:52;14.20;99.90
2162;DHT22;1087;50.226;8.682;2023-03-23T10:51:22;14.20;99.90
2162;DHT22;1087;50.226;8.682;2023-03-23T10:53:51;14.30;99.90
2162;DHT22;1087;50.226;8.682;2023-03-23T10:56:26;14.30;99.90
2162;DHT22;1087;50.226;8.682;2023-03-23T10:58:53;14.40;99.90
2162;DHT22;1087;50.226;8.682;2023-03-23T11:01:29;14.50;99.90
2162;DHT22;1087;50.226;8.682;2023-03-23T11:03:56;14.50;99.90
2162;DHT22;1087;50.226;8.682;2023-03-23T11:06:29;14.50;99.90
2162;DHT22;1087;50.226;8.682;2023-03-23T11:09:15;14.50;99.90
2162;DHT22;1087;50.226;8.682;2023-03-23T11:11:51;14.60;99.90
2162;DHT22;1087;50.226;8.682;2023-03-23T11:14:26;14.60;99.90
2162;DHT22;1087;50.226;8.682;2023-03-23T11:16:57;14.70;99.90
2162;DHT22;1087;50.226;8.682;2023-03-23T11:19:31;14.60;99.90
2162;DHT22;1087;50.226;8.682;2023-03-23T11:24:37;14.70;99.90
2162;DHT22;1087;50.226;8.682;2023-03-23T11:27:06;14.70;99.90
2162;DHT22;1087;50.226;8.682;2023-03-23T11:29:34;14.80;99.90
2162;DHT22;1087;50.226;8.682;2023-03-23T11:32:04;14.70;99.90
2162;DHT22;1087;50.226;8.682;2023-03-23T11:34:39;14.80;99.90
2162;DHT22;1087;50.226;8.682;2023-03-23T11:37:41;14.80;99.90
2162;DHT22;1087;50.226;8.682;2023-03-23T11:45:35;15.00;99.90
2162;DHT22;1087;50.226;8.682;2023-03-23T11:50:57;15.00;99.90
2162;DHT22;1087;50.226;8.682;2023-03-23T11:56:35;15.00;99.90
2162;DHT22;1087;50.226;8.682;2023-03-23T11:59:02;15.00;99.90
2162;DHT22;1087;50.226;8.682;2023-03-23T12:05:15;15.10;99.90
2162;DHT22;1087;50.226;8.682;2023-03-23T12:07:38;15.00;99.90
2162;DHT22;1087;50.226;8.682;2023-03-23T12:12:55;15.00;99.90
2162;DHT22;1087;50.226;8.682;2023-03-23T12:15:30;14.90;99.90
2162;DHT22;1087;50.226;8.682;2023-03-23T12:21:00;14.80;99.90
2162;DHT22;1087;50.226;8.682;2023-03-23T12:23:33;14.80;99.90
2162;DHT22;1087;50.226;8.682;2023-03-23T12:31:36;14.70;99.90
2162;DHT22;1087;50.226;8.682;2023-03-23T12:34:33;14.60;99.90
2162;DHT22;1087;50.226;8.682;2023-03-23T12:40:16;14.60;99.90
2162;DHT22;1087;50.226;8.682;2023-03-23T12:45:43;14.70;99.90
2162;DHT22;1087;50.226;8.682;2023-03-23T12:48:18;14.70;99.90
2162;DHT22;1087;50.226;8.682;2023-03-23T12:53:30;15.00;99.90
2162;DHT22;1087;50.226;8.682;2023-03-23T12:59:14;15.00;99.90
2162;DHT22;1087;50.226;8.682;2023-03-23T13:01:45;15.10;99.90
2162;DHT22;1087;50.226;8.682;2023-03-23T13:04:35;15.10;99.90
2162;DHT22;1087;50.226;8.682;2023-03-23T13:07:06;15.20;99.90
2162;DHT22;1087;50.226;8.682;2023-03-23T13:10:08;15.30;99.90
2162;DHT22;1087;50.226;8.682;2023-03-23T13:12:38;15.20;99.90
2162;DHT22;1087;50.226;8.682;2023-03-23T13:20:43;15.10;99.90
2162;DHT22;1087;50.226;8.682;2023-03-23T13:23:19;15.10;99.90
2162;DHT22;1087;50.226;8.682;2023-03-23T13:26:00;15.10;99.90
2162;DHT22;1087;50.226;8.682;2023-03-23T13:28:28;15.10;99.90
2162;DHT22;1087;50.226;8.682;2023-03-23T13:30:57;15.20;99.90
2162;DHT22;1087;50.226;8.682;2023-03-23T13:33:23;15.30;99.90
2162;DHT22;1087;50.226;8.682;2023-03-23T13:35:49;15.30;99.90
2162;DHT22;1087;50.226;8.682;2023-03-23T13:38:29;15.40;99.90
2162;DHT22;1087;50.226;8.682;2023-03-23T13:40:55;15.50;99.90
2162;DHT22;1087;50.226;8.682;2023-03-23T13:43:29;15.60;99.90
2162;DHT22;1087;50.226;8.682;2023-03-23T13:45:55;15.60;99.90
2162;DHT22;1087;50.226;8.682;2023-03-23T13:48:43;15.70;99.90
2162;DHT22;1087;50.226;8.682;2023-03-23T13:54:30;15.70;99.90
2162;DHT22;1087;50.226;8.682;2023-03-23T13:56:54;15.70;99.90
2162;DHT22;1087;50.226;8.682;2023-03-23T14:01:53;15.90;99.90
2162;DHT22;1087;50.226;8.682;2023-03-23T14:04:20;16.00;99.90
2162;DHT22;1087;50.226;8.682;2023-03-23T14:06:48;16.10;99.90
2162;DHT22;1087;50.226;8.682;2023-03-23T14:09:25;16.00;99.90
2162;DHT22;1087;50.226;8.682;2023-03-23T14:11:54;16.00;99.90
2162;DHT22;1087;50.226;8.682;2023-03-23T14:14:25;16.00;99.90
2162;DHT22;1087;50.226;8.682;2023-03-23T14:16:52;16.00;99.90
2162;DHT22;1087;50.226;8.682;2023-03-23T14:19:29;15.90;99.90
2162;DHT22;1087;50.226;8.682;2023-03-23T14:21:58;16.00;99.90
2162;DHT22;1087;50.226;8.682;2023-03-23T14:24:32;16.00;99.90
2162;DHT22;1087;50.226;8.682;2023-03-23T14:27:16;16.00;99.90
2162;DHT22;1087;50.226;8.682;2023-03-23T14:29:42;15.90;99.90
2162;DHT22;1087;50.226;8.682;2023-03-23T14:32:16;15.90;99.90
2162;DHT22;1087;50.226;8.682;2023-03-23T14:34:46;15.80;99.90
2162;DHT22;1087;50.226;8.682;2023-03-23T14:37:13;15.90;99.90
2162;DHT22;1087;50.226;8.682;2023-03-23T14:39:44;15.70;99.90
2162;DHT22;1087;50.226;8.682;2023-03-23T14:42:13;15.60;99.90
2162;DHT22;1087;50.226;8.682;2023-03-23T14:44:42;15.70;99.90
2162;DHT22;1087;50.226;8.682;2023-03-23T14:47:16;15.70;99.90
2162;DHT22;1087;50.226;8.682;2023-03-23T14:49:44;15.60;99.90
2162;DHT22;1087;50.226;8.682;2023-03-23T14:52:13;15.60;99.90
2162;DHT22;1087;50.226;8.682;2023-03-23T14:54:39;15.60;99.90
2162;DHT22;1087;50.226;8.682;2023-03-23T14:57:33;15.60;99.90
2162;DHT22;1087;50.226;8.682;2023-03-23T14:59:58;15.50;99.90
2162;DHT22;1087;50.226;8.682;2023-03-23T15:04:54;15.50;99.90
2162;DHT22;1087;50.226;8.682;2023-03-23T15:07:26;15.50;99.90
2162;DHT22;1087;50.226;8.682;2023-03-23T15:09:54;15.50;99.90
2162;DHT22;1087;50.226;8.682;2023-03-23T15:12:22;15.40;99.90
2162;DHT22;1087;50.226;8.682;2023-03-23T15:14:51;15.40;99.90
2162;DHT22;1087;50.226;8.682;2023-03-23T15:17:24;15.40;99.90
2162;DHT22;1087;50.226;8.682;2023-03-23T15:19:52;15.30;99.90
2162;DHT22;1087;50.226;8.682;2023-03-23T15:22:36;15.40;99.90
2162;DHT22;1087;50.226;8.682;2023-03-23T15:25:32;15.50;99.90
2162;DHT22;1087;50.226;8.682;2023-03-23T15:28:14;15.50;99.90
2162;DHT22;1087;50.226;8.682;2023-03-23T15:30:52;15.50;99.90
2162;DHT22;1087;50.226;8.682;2023-03-23T15:33:19;15.50;99.90
2162;DHT22;1087;50.226;8.682;2023-03-23T15:35:52;15.50;99.90
2162;DHT22;1087;50.226;8.682;2023-03-23T15:40:50;15.50;99.90
2162;DHT22;1087;50.226;8.682;2023-03-23T15:43:21;15.50;99.90
2162;DHT22;1087;50.226;8.682;2023-03-23T15:46:00;15.50;99.90
2162;DHT22;1087;50.226;8.682;2023-03-23T15:48:30;15.50;99.90
2162;DHT22;1087;50.226;8.682;2023-03-23T15:50:56;15.40;99.90
2162;DHT22;1087;50.226;8.682;2023-03-23T15:53:31;15.40;99.90
2162;DHT22;1087;50.226;8.682;2023-03-23T15:56:03;15.40;99.90
2162;DHT22;1087;50.226;8.682;2023-03-23T15:58:30;15.30;99.90
2162;DHT22;1087;50.226;8.682;2023-03-23T16:00:56;15.30;99.90
2162;DHT22;1087;50.226;8.682;2023-03-23T16:03:26;15.30;99.90
2162;DHT22;1087;50.226;8.682;2023-03-23T16:05:56;15.20;99.90
2162;DHT22;1087;50.226;8.682;2023-03-23T16:08:24;15.30;99.90
2162;DHT22;1087;50.226;8.682;2023-03-23T16:10:50;15.40;99.90
2162;DHT22;1087;50.226;8.682;2023-03-23T16:13:16;15.30;99.90
2162;DHT22;1087;50.226;8.682;2023-03-23T16:15:43;15.30;99.90
2162;DHT22;1087;50.226;8.682;2023-03-23T16:18:19;15.30;99.90
2162;DHT22;1087;50.226;8.682;2023-03-23T16:20:46;15.30;99.90
2162;DHT22;1087;50.226;8.682;2023-03-23T16:23:12;15.40;99.90
2162;DHT22;1087;50.226;8.682;2023-03-23T16:25:38;15.30;99.90
2162;DHT22;1087;50.226;8.682;2023-03-23T16:28:03;15.20;99.90
2162;DHT22;1087;50.226;8.682;2023-03-23T16:30:33;15.20;99.90
2162;DHT22;1087;50.226;8.682;2023-03-23T16:32:59;15.20;99.90
2162;DHT22;1087;50.226;8.682;2023-03-23T16:35:25;15.20;99.90
2162;DHT22;1087;50.226;8.682;2023-03-23T16:37:53;15.20;99.90
2162;DHT22;1087;50.226;8.682;2023-03-23T16:40:20;15.20;99.90
2162;DHT22;1087;50.226;8.682;2023-03-23T16:42:46;15.10;99.90
2162;DHT22;1087;50.226;8.682;2023-03-23T16:45:13;15.10;99.90
2162;DHT22;1087;50.226;8.682;2023-03-23T16:47:39;15.00;99.90
2162;DHT22;1087;50.226;8.682;2023-03-23T16:50:08;15.00;99.90
2162;DHT22;1087;50.226;8.682;2023-03-23T16:52:37;15.00;99.90
2162;DHT22;1087;50.226;8.682;2023-03-23T16:55:03;15.00;99.90
2162;DHT22;1087;50.226;8.682;2023-03-23T16:57:28;15.00;99.90
2162;DHT22;1087;50.226;8.682;2023-03-23T16:59:54;14.90;99.90
2162;DHT22;1087;50.226;8.682;2023-03-23T17:02:23;14.90;99.90
2162;DHT22;1087;50.226;8.682;2023-03-23T17:04:48;14.90;99.90
2162;DHT22;1087;50.226;8.682;2023-03-23T17:07:14;14.80;99.90
2162;DHT22;1087;50.226;8.682;2023-03-23T17:09:40;14.90;99.90
2162;DHT22;1087;50.226;8.682;2023-03-23T17:12:06;14.90;99.90
2162;DHT22;1087;50.226;8.682;2023-03-23T17:14:31;14.90;99.90
2162;DHT22;1087;50.226;8.682;2023-03-23T17:16:57;14.80;99.90
2162;DHT22;1087;50.226;8.682;2023-03-23T17:19:23;14.90;99.90
2162;DHT22;1087;50.226;8.682;2023-03-23T17:21:48;14.90;99.90
2162;DHT22;1087;50.226;8.682;2023-03-23T17:24:14;15.00;99.90
2162;DHT22;1087;50.226;8.682;2023-03-23T17:26:39;14.90;99.90
2162;DHT22;1087;50.226;8.682;2023-03-23T17:29:06;14.70;99.90
2162;DHT22;1087;50.226;8.682;2023-03-23T17:31:31;14.80;99.90
2162;DHT22;1087;50.226;8.682;2023-03-23T17:33:57;14.80;99.90
2162;DHT22;1087;50.226;8.682;2023-03-23T17:36:22;14.80;99.90
2162;DHT22;1087;50.226;8.682;2023-03-23T17:38:49;14.80;99.90
2162;DHT22;1087;50.226;8.682;2023-03-23T17:41:15;14.90;99.90
2162;DHT22;1087;50.226;8.682;2023-03-23T17:43:40;14.80;99.90
2162;DHT22;1087;50.226;8.682;2023-03-23T17:46:07;14.80;99.90
2162;DHT22;1087;50.226;8.682;2023-03-23T17:48:33;14.70;99.90